createdAt,value
2018-05-04T00:01:45.637Z,14.40
2018-05-04T00:04:17.150Z,14.40
2018-05-04T00:06:48.525Z,14.40
2018-05-04T00:09:20.664Z,14.30
2018-05-04T00:11:52.054Z,14.30
2018-05-04T00:14:24.801Z,14.30
2018-05-04T00:16:56.160Z,14.20
2018-05-04T00:19:27.665Z,14.20
2018-05-04T00:21:59.025Z,14.20
2018-05-04T00:24:30.350Z,14.20
2018-05-04T00:27:01.832Z,14.20
2018-05-04T00:29:33.179Z,14.10
2018-05-04T00:32:04.769Z,14.70
2018-05-04T00:34:36.158Z,14.10
2018-05-04T00:37:07.434Z,14.00
2018-05-04T00:39:39.035Z,14.00
2018-05-04T00:42:10.517Z,14.00
2018-05-04T00:44:42.638Z,13.90
2018-05-04T00:47:14.023Z,13.90
2018-05-04T00:49:46.170Z,13.80
2018-05-04T00:52:18.453Z,13.80
2018-05-04T00:54:50.596Z,13.70
2018-05-04T00:57:22.209Z,13.70
2018-05-04T00:59:53.575Z,13.70
2018-05-04T01:02:24.923Z,13.70
2018-05-04T01:04:56.293Z,13.60
2018-05-04T01:07:27.636Z,13.60
2018-05-04T01:09:59.301Z,13.50
2018-05-04T01:12:30.630Z,13.50
2018-05-04T01:15:02.007Z,13.50
2018-05-04T01:17:33.518Z,13.50
2018-05-04T01:20:04.210Z,13.40
2018-05-04T01:22:36.312Z,13.40
2018-05-04T01:25:07.688Z,13.40
2018-05-04T01:27:39.054Z,13.40
2018-05-04T01:30:10.587Z,13.40
2018-05-04T01:32:41.933Z,13.30
2018-05-04T01:35:13.321Z,13.30
2018-05-04T01:37:45.171Z,13.30
2018-05-04T01:40:16.467Z,13.20
2018-05-04T01:42:48.579Z,13.20
2018-05-04T01:45:19.910Z,13.20
2018-05-04T01:47:54.316Z,13.20
2018-05-04T01:50:25.661Z,13.20
2018-05-04T01:52:56.995Z,13.20
2018-05-04T01:55:29.122Z,13.10
2018-05-04T01:58:00.479Z,13.10
2018-05-04T02:00:31.833Z,13.10
2018-05-04T02:03:03.191Z,13.10
2018-05-04T02:05:34.577Z,13.00
2018-05-04T02:08:06.334Z,13.00
2018-05-04T02:10:38.465Z,13.00
2018-05-04T02:13:09.812Z,13.00
2018-05-04T02:15:41.186Z,13.00
2018-05-04T02:18:13.313Z,12.90
2018-05-04T02:20:44.762Z,12.90
2018-05-04T02:23:16.113Z,12.90
2018-05-04T02:25:47.489Z,12.90
2018-05-04T02:28:19.593Z,12.80
2018-05-04T02:30:51.905Z,12.80
2018-05-04T02:33:23.231Z,12.80
2018-05-04T02:35:54.642Z,12.80
2018-05-04T02:38:26.754Z,12.70
2018-05-04T02:40:58.180Z,12.70
2018-05-04T02:43:29.291Z,12.70
2018-05-04T02:46:00.730Z,12.70
2018-05-04T02:48:32.082Z,12.70
2018-05-04T02:51:03.314Z,12.60
2018-05-04T02:53:35.266Z,12.60
2018-05-04T02:56:06.624Z,12.60
2018-05-04T02:58:38.093Z,12.60
2018-05-04T03:01:09.456Z,12.60
2018-05-04T03:03:41.101Z,12.50
2018-05-04T03:06:12.457Z,12.50
2018-05-04T03:08:45.381Z,12.50
2018-05-04T03:11:16.786Z,12.50
2018-05-04T03:13:48.237Z,12.40
2018-05-04T03:16:19.827Z,12.40
2018-05-04T03:18:51.709Z,12.40
2018-05-04T03:21:22.913Z,12.30
2018-05-04T03:23:54.488Z,12.30
2018-05-04T03:26:26.623Z,12.30
2018-05-04T03:28:57.827Z,12.30
2018-05-04T03:31:29.018Z,12.30
2018-05-04T03:34:00.189Z,12.20
2018-05-04T03:36:31.405Z,12.30
2018-05-04T03:39:02.777Z,12.20
2018-05-04T03:41:35.586Z,12.20
2018-05-04T03:44:07.182Z,12.10
2018-05-04T03:46:38.166Z,12.10
2018-05-04T03:49:09.394Z,12.10
2018-05-04T03:51:40.601Z,12.00
2018-05-04T03:54:11.776Z,12.00
2018-05-04T03:56:42.963Z,12.00
2018-05-04T03:59:31.038Z,12.00
2018-05-04T04:02:19.200Z,11.90
2018-05-04T04:04:50.954Z,11.90
2018-05-04T04:07:22.279Z,11.90
2018-05-04T04:09:53.698Z,11.80
2018-05-04T04:12:25.793Z,11.80
2018-05-04T04:14:57.169Z,11.80
2018-05-04T04:17:28.533Z,11.80
2018-05-04T04:19:59.846Z,11.80
2018-05-04T04:22:31.249Z,11.70
2018-05-04T04:25:02.629Z,11.80
2018-05-04T04:27:34.013Z,11.70
2018-05-04T04:30:05.333Z,11.80
2018-05-04T04:32:36.681Z,11.70
2018-05-04T04:35:08.895Z,11.80
2018-05-04T04:37:40.262Z,11.70
2018-05-04T04:40:11.659Z,11.80
2018-05-04T04:42:43.046Z,11.70
2018-05-04T04:45:15.306Z,11.80
2018-05-04T04:47:46.812Z,12.00
2018-05-04T04:50:18.966Z,11.80
2018-05-04T04:52:50.597Z,11.80
2018-05-04T04:55:22.403Z,11.80
2018-05-04T04:57:53.842Z,11.90
2018-05-04T05:00:25.959Z,11.90
2018-05-04T05:02:57.306Z,11.90
2018-05-04T05:05:28.642Z,11.90
2018-05-04T05:08:00.025Z,12.00
2018-05-04T05:10:31.404Z,12.00
2018-05-04T05:13:03.044Z,12.00
2018-05-04T05:15:34.378Z,12.00
2018-05-04T05:18:05.732Z,12.00
2018-05-04T05:20:37.169Z,12.10
2018-05-04T05:23:08.546Z,12.10
2018-05-04T05:25:39.897Z,12.10
2018-05-04T05:28:11.203Z,12.10
2018-05-04T05:30:42.958Z,12.20
2018-05-04T05:33:14.311Z,12.20
2018-05-04T05:35:45.716Z,12.30
2018-05-04T05:38:17.078Z,12.30
2018-05-04T05:40:48.107Z,12.40
2018-05-04T05:43:20.678Z,12.40
2018-05-04T05:45:52.140Z,12.40
2018-05-04T05:48:24.028Z,12.50
2018-05-04T05:50:55.421Z,12.50
2018-05-04T05:53:26.767Z,12.60
2018-05-04T05:55:58.132Z,12.60
2018-05-04T05:58:31.074Z,12.70
2018-05-04T06:01:02.767Z,12.70
2018-05-04T06:03:34.128Z,12.80
2018-05-04T06:06:05.607Z,12.90
2018-05-04T06:08:37.167Z,13.00
2018-05-04T06:11:08.527Z,13.00
2018-05-04T06:13:40.270Z,13.10
2018-05-04T06:16:11.429Z,13.20
2018-05-04T06:18:43.171Z,13.20
2018-05-04T06:21:15.278Z,13.40
2018-05-04T06:23:46.691Z,13.40
2018-05-04T06:26:18.901Z,13.50
2018-05-04T06:28:50.601Z,13.50
2018-05-04T06:31:23.582Z,13.60
2018-05-04T06:33:55.145Z,13.60
2018-05-04T06:36:27.409Z,13.80
2018-05-04T06:38:58.972Z,13.80
2018-05-04T06:41:30.478Z,13.80
2018-05-04T06:44:01.855Z,13.90
2018-05-04T06:46:34.068Z,14.00
2018-05-04T06:49:05.682Z,14.00
2018-05-04T06:51:37.088Z,14.10
2018-05-04T06:54:09.270Z,14.20
2018-05-04T06:56:40.709Z,14.20
2018-05-04T06:59:12.055Z,14.30
2018-05-04T07:01:44.181Z,14.50
2018-05-04T07:04:15.572Z,14.40
2018-05-04T07:06:47.725Z,14.60
2018-05-04T07:09:19.851Z,14.70
2018-05-04T07:11:51.318Z,14.70
2018-05-04T07:14:23.491Z,14.90
2018-05-04T07:16:54.985Z,14.90
2018-05-04T07:19:26.408Z,15.00
2018-05-04T07:21:59.440Z,15.20
2018-05-04T07:24:31.338Z,15.10
2018-05-04T07:27:02.648Z,15.30
2018-05-04T07:29:34.760Z,15.40
2018-05-04T07:32:06.337Z,15.40
2018-05-04T07:34:37.712Z,15.50
2018-05-04T07:37:09.119Z,15.60
2018-05-04T07:39:40.969Z,15.70
2018-05-04T07:42:13.129Z,15.80
2018-05-04T07:44:44.572Z,15.80
2018-05-04T07:47:15.972Z,16.00
2018-05-04T07:49:47.369Z,16.00
2018-05-04T07:52:18.896Z,16.10
2018-05-04T07:54:50.232Z,16.20
2018-05-04T07:57:22.415Z,16.40
2018-05-04T07:59:54.545Z,16.50
2018-05-04T08:02:26.081Z,16.40
2018-05-04T08:04:57.437Z,16.50
2018-05-04T08:07:29.093Z,16.60
2018-05-04T08:10:00.444Z,16.70
2018-05-04T08:12:31.842Z,17.10
2018-05-04T08:15:03.255Z,16.90
2018-05-04T08:17:34.678Z,17.00
2018-05-04T08:20:06.106Z,17.10
2018-05-04T08:22:38.368Z,17.20
2018-05-04T08:25:09.739Z,17.20
2018-05-04T08:27:41.083Z,17.40
2018-05-04T08:30:12.455Z,17.40
2018-05-04T08:32:43.826Z,17.50
2018-05-04T08:35:15.278Z,17.60
2018-05-04T08:37:46.805Z,17.70
2018-05-04T08:40:17.939Z,17.80
2018-05-04T08:42:50.089Z,17.90
2018-05-04T08:45:21.616Z,17.90
2018-05-04T08:47:52.973Z,18.00
2018-05-04T08:50:25.241Z,18.30
2018-05-04T08:52:56.690Z,18.20
2018-05-04T08:55:28.904Z,18.40
2018-05-04T08:58:00.288Z,18.40
2018-05-04T09:00:31.628Z,18.40
2018-05-04T09:03:03.109Z,18.60
2018-05-04T09:05:36.077Z,18.70
2018-05-04T09:08:08.364Z,18.90
2018-05-04T09:10:40.497Z,19.00
2018-05-04T09:13:12.329Z,19.00
2018-05-04T09:15:43.724Z,19.10
2018-05-04T09:18:15.285Z,19.20
2018-05-04T09:20:46.709Z,19.40
2018-05-04T09:23:18.058Z,19.40
2018-05-04T09:25:49.468Z,19.60
2018-05-04T09:28:20.788Z,19.70
2018-05-04T09:30:52.416Z,19.90
2018-05-04T09:33:24.873Z,20.10
2018-05-04T09:35:56.979Z,20.30
2018-05-04T09:38:28.653Z,20.20
2018-05-04T09:41:00.040Z,20.40
2018-05-04T09:43:31.509Z,20.60
2018-05-04T09:46:03.095Z,20.70
2018-05-04T09:48:34.422Z,20.90
2018-05-04T09:51:05.779Z,21.10
2018-05-04T09:53:37.266Z,21.20
2018-05-04T09:56:10.314Z,21.50
2018-05-04T09:58:42.630Z,21.70
2018-05-04T10:01:14.834Z,21.90
2018-05-04T10:03:46.925Z,22.10
2018-05-04T10:06:18.453Z,22.10
2018-05-04T10:08:49.983Z,22.40
2018-05-04T10:11:22.960Z,23.00
2018-05-04T10:13:54.323Z,23.00
2018-05-04T10:16:25.721Z,23.40
2018-05-04T10:18:57.093Z,23.70
2018-05-04T10:21:28.440Z,24.10
2018-05-04T10:23:59.880Z,24.50
2018-05-04T10:26:31.284Z,24.90
2018-05-04T10:29:02.609Z,25.50
2018-05-04T10:31:33.993Z,25.70
2018-05-04T10:34:05.362Z,26.00
2018-05-04T10:36:36.815Z,26.40
2018-05-04T10:39:08.206Z,26.70
2018-05-04T10:41:39.572Z,27.00
2018-05-04T10:44:10.979Z,27.30
2018-05-04T10:46:42.973Z,27.70
2018-05-04T10:49:14.353Z,28.00
2018-05-04T10:51:46.319Z,28.30
2018-05-04T10:54:18.429Z,28.90
2018-05-04T10:56:50.113Z,28.90
2018-05-04T10:59:22.858Z,29.40
2018-05-04T11:01:55.603Z,29.70
2018-05-04T11:04:27.654Z,29.60
2018-05-04T11:07:00.591Z,30.30
2018-05-04T11:09:32.625Z,30.20
2018-05-04T11:12:04.545Z,30.50
2018-05-04T11:14:37.465Z,31.00
2018-05-04T11:17:09.330Z,30.90
2018-05-04T11:19:41.253Z,31.10
2018-05-04T11:22:14.017Z,31.50
2018-05-04T11:24:45.993Z,31.40
2018-05-04T11:27:18.887Z,31.90
2018-05-04T11:29:51.600Z,32.10
2018-05-04T11:32:23.761Z,32.10
2018-05-04T11:34:55.718Z,32.40
2018-05-04T11:37:28.406Z,32.80
2018-05-04T11:40:00.312Z,32.80
2018-05-04T11:42:32.159Z,33.10
2018-05-04T11:45:03.962Z,33.30
2018-05-04T11:47:35.909Z,33.50
2018-05-04T11:50:07.824Z,33.70
2018-05-04T11:52:40.750Z,34.20
2018-05-04T11:55:12.783Z,34.10
2018-05-04T11:57:44.909Z,34.30
2018-05-04T12:00:17.628Z,34.70
2018-05-04T12:02:50.354Z,34.80
2018-05-04T12:05:23.066Z,34.90
2018-05-04T12:07:55.977Z,35.00
2018-05-04T12:10:28.262Z,35.00
2018-05-04T12:12:59.983Z,35.20
2018-05-04T12:15:32.047Z,35.40
2018-05-04T12:18:04.290Z,35.40
2018-05-04T12:20:37.383Z,35.80
2018-05-04T12:23:09.409Z,35.70
2018-05-04T12:25:41.313Z,35.90
2018-05-04T12:28:13.270Z,35.90
2018-05-04T12:30:45.169Z,36.00
2018-05-04T12:33:17.961Z,36.20
2018-05-04T12:35:49.868Z,36.20
2018-05-04T12:38:21.822Z,36.20
2018-05-04T12:40:53.700Z,36.20
2018-05-04T12:43:25.639Z,36.20
2018-05-04T12:45:57.529Z,36.20
2018-05-04T12:48:29.460Z,36.20
2018-05-04T12:51:01.375Z,36.10
2018-05-04T12:53:34.214Z,36.20
2018-05-04T12:56:06.999Z,36.20
2018-05-04T12:58:40.010Z,36.30
2018-05-04T13:01:13.241Z,36.40
2018-05-04T13:03:45.567Z,36.30
2018-05-04T13:06:17.466Z,36.40
2018-05-04T13:08:50.182Z,36.40
2018-05-04T13:11:22.404Z,36.30
2018-05-04T13:13:54.088Z,36.20
2018-05-04T13:16:25.992Z,35.90
2018-05-04T13:18:58.092Z,35.40
2018-05-04T13:21:30.057Z,35.00
2018-05-04T13:24:02.317Z,34.40
2018-05-04T13:26:34.270Z,33.90
2018-05-04T13:29:06.206Z,33.30
2018-05-04T13:31:38.237Z,32.80
2018-05-04T13:34:10.172Z,32.20
2018-05-04T13:36:41.762Z,31.70
2018-05-04T13:39:13.122Z,31.20
2018-05-04T13:41:44.591Z,30.80
2018-05-04T13:44:15.941Z,30.30
2018-05-04T13:46:47.570Z,29.90
2018-05-04T13:49:19.094Z,29.40
2018-05-04T13:51:50.469Z,29.10
2018-05-04T13:54:21.874Z,28.70
2018-05-04T13:56:54.011Z,28.10
2018-05-04T13:59:25.634Z,28.10
2018-05-04T14:01:56.771Z,27.90
2018-05-04T14:04:29.141Z,27.40
2018-05-04T14:07:00.324Z,27.30
2018-05-04T14:09:31.729Z,27.20
2018-05-04T14:12:03.227Z,27.00
2018-05-04T14:14:34.683Z,26.80
2018-05-04T14:17:06.080Z,26.60
2018-05-04T14:19:37.505Z,26.40
2018-05-04T14:22:09.678Z,26.10
2018-05-04T14:24:41.305Z,26.10
2018-05-04T14:27:13.545Z,25.80
2018-05-04T14:29:45.117Z,25.80
2018-05-04T14:32:16.471Z,25.80
2018-05-04T14:34:47.868Z,25.60
2018-05-04T14:37:21.844Z,25.40
2018-05-04T14:39:53.231Z,25.40
2018-05-04T14:42:24.728Z,25.30
2018-05-04T14:44:56.111Z,25.30
2018-05-04T14:47:27.595Z,25.30
2018-05-04T14:49:59.026Z,25.30
2018-05-04T14:52:30.495Z,25.40
2018-05-04T14:55:01.997Z,25.50
2018-05-04T14:57:33.385Z,25.60
2018-05-04T15:00:04.166Z,25.70
2018-05-04T15:02:35.921Z,25.70
2018-05-04T15:05:07.551Z,25.70
2018-05-04T15:07:38.969Z,25.70
2018-05-04T15:10:10.287Z,25.60
2018-05-04T15:12:41.862Z,25.60
2018-05-04T15:15:13.534Z,25.50
2018-05-04T15:17:45.451Z,25.20
2018-05-04T15:20:16.929Z,25.20
2018-05-04T15:22:48.450Z,25.10
2018-05-04T15:25:20.238Z,25.00
2018-05-04T15:27:51.575Z,24.90
2018-05-04T15:30:23.044Z,24.80
2018-05-04T15:32:54.394Z,24.70
2018-05-04T15:35:26.567Z,24.50
2018-05-04T15:37:57.934Z,24.50
2018-05-04T15:40:30.193Z,24.30
2018-05-04T15:43:01.834Z,24.30
2018-05-04T15:45:33.182Z,24.30
2018-05-04T15:48:09.776Z,24.20
2018-05-04T15:50:46.460Z,24.20
2018-05-04T15:53:18.587Z,24.10
2018-05-04T15:55:49.977Z,24.00
2018-05-04T15:58:22.262Z,24.00
2018-05-04T16:00:53.941Z,24.00
2018-05-04T16:03:25.317Z,24.00
2018-05-04T16:05:56.733Z,24.00
2018-05-04T16:08:27.949Z,23.90
2018-05-04T16:10:59.271Z,23.90
2018-05-04T16:13:30.691Z,23.80
2018-05-04T16:16:02.205Z,23.80
2018-05-04T16:18:33.549Z,23.80
2018-05-04T16:21:05.018Z,23.70
2018-05-04T16:23:37.154Z,23.60
2018-05-04T16:26:08.534Z,23.60
2018-05-04T16:28:39.877Z,23.60
2018-05-04T16:31:11.010Z,23.60
2018-05-04T16:33:43.142Z,23.50
2018-05-04T16:36:14.526Z,23.50
2018-05-04T16:38:46.160Z,23.50
2018-05-04T16:41:17.656Z,23.50
2018-05-04T16:43:49.132Z,23.50
2018-05-04T16:46:25.841Z,23.40
2018-05-04T16:49:02.590Z,23.40
2018-05-04T16:51:34.041Z,23.40
2018-05-04T16:54:06.210Z,23.40
2018-05-04T16:56:37.351Z,23.30
2018-05-04T16:59:08.721Z,23.40
2018-05-04T17:01:39.909Z,23.30
2018-05-04T17:04:11.036Z,23.30
2018-05-04T17:06:42.211Z,23.30
2018-05-04T17:09:13.463Z,23.20
2018-05-04T17:11:45.607Z,23.20
2018-05-04T17:14:17.520Z,23.10
2018-05-04T17:16:48.981Z,23.10
2018-05-04T17:19:20.081Z,23.10
2018-05-04T17:21:51.251Z,23.00
2018-05-04T17:24:22.353Z,23.00
2018-05-04T17:26:53.967Z,22.90
2018-05-04T17:29:25.420Z,22.90
2018-05-04T17:31:56.853Z,22.80
2018-05-04T17:34:29.028Z,22.70
2018-05-04T17:37:00.155Z,22.70
2018-05-04T17:39:32.290Z,22.60
2018-05-04T17:42:03.640Z,22.60
2018-05-04T17:44:35.051Z,22.60
2018-05-04T17:47:06.749Z,22.50
2018-05-04T17:49:38.512Z,22.40
2018-05-04T17:52:09.723Z,22.40
2018-05-04T17:54:41.126Z,22.40
2018-05-04T17:57:12.816Z,22.30
2018-05-04T17:59:44.595Z,22.30
2018-05-04T18:02:16.266Z,22.30
2018-05-04T18:04:47.693Z,22.20
2018-05-04T18:07:19.122Z,22.10
2018-05-04T18:09:51.611Z,22.10
2018-05-04T18:12:23.414Z,22.10
2018-05-04T18:14:55.090Z,22.10
2018-05-04T18:17:26.489Z,22.00
2018-05-04T18:19:58.818Z,21.90
2018-05-04T18:22:31.693Z,21.90
2018-05-04T18:25:03.050Z,21.80
2018-05-04T18:27:34.457Z,21.80
2018-05-04T18:30:06.274Z,21.70
2018-05-04T18:32:37.736Z,21.60
2018-05-04T18:35:09.077Z,21.60
2018-05-04T18:37:40.498Z,21.60
2018-05-04T18:40:11.836Z,21.50
2018-05-04T18:42:43.389Z,21.50
2018-05-04T18:45:14.857Z,21.40
2018-05-04T18:47:46.209Z,21.30
2018-05-04T18:50:17.560Z,21.30
2018-05-04T18:52:48.906Z,21.20
2018-05-04T18:55:20.300Z,21.10
2018-05-04T18:57:52.439Z,21.00
2018-05-04T19:00:23.774Z,21.00
2018-05-04T19:03:00.793Z,21.00
2018-05-04T19:05:32.918Z,20.90
2018-05-04T19:08:05.299Z,20.80
2018-05-04T19:10:36.787Z,20.80
2018-05-04T19:13:08.608Z,20.70
2018-05-04T19:15:39.989Z,20.70
2018-05-04T19:18:11.431Z,20.70
2018-05-04T19:20:42.845Z,20.60
2018-05-04T19:23:15.173Z,20.50
2018-05-04T19:25:46.573Z,20.50
2018-05-04T19:28:17.884Z,20.50
2018-05-04T19:30:49.257Z,20.50
2018-05-04T19:33:20.607Z,20.40
2018-05-04T19:35:52.021Z,20.40
2018-05-04T19:38:23.426Z,20.30
2018-05-04T19:40:54.822Z,20.30
2018-05-04T19:43:26.242Z,20.20
2018-05-04T19:45:57.613Z,20.20
2018-05-04T19:48:29.250Z,20.10
2018-05-04T19:51:00.620Z,20.00
2018-05-04T19:53:32.859Z,19.90
2018-05-04T19:56:04.281Z,19.90
2018-05-04T19:58:35.878Z,19.90
2018-05-04T20:01:07.355Z,19.90
2018-05-04T20:03:38.843Z,19.80
2018-05-04T20:06:10.189Z,19.80
2018-05-04T20:08:41.677Z,19.70
2018-05-04T20:11:13.790Z,19.70
2018-05-04T20:13:45.955Z,19.60
2018-05-04T20:16:18.069Z,19.60
2018-05-04T20:18:49.763Z,19.50
2018-05-04T20:21:21.167Z,19.60
2018-05-04T20:23:53.369Z,19.40
2018-05-04T20:26:25.692Z,19.40
2018-05-04T20:28:57.138Z,19.40
2018-05-04T20:31:29.387Z,19.30
2018-05-04T20:34:01.535Z,19.30
2018-05-04T20:36:32.922Z,19.30
2018-05-04T20:39:03.874Z,19.20
2018-05-04T20:41:35.225Z,19.20
2018-05-04T20:44:06.665Z,19.20
2018-05-04T20:46:38.191Z,19.10
2018-05-04T20:49:09.598Z,19.10
2018-05-04T20:51:41.387Z,19.00
2018-05-04T20:54:12.811Z,19.00
2018-05-04T20:56:44.096Z,19.00
2018-05-04T20:59:15.143Z,18.90
2018-05-04T21:01:46.524Z,18.90
2018-05-04T21:04:17.898Z,18.90
2018-05-04T21:06:49.295Z,18.80
2018-05-04T21:09:20.581Z,18.80
2018-05-04T21:11:52.391Z,18.80
2018-05-04T21:14:23.822Z,18.70
2018-05-04T21:16:55.191Z,18.70
2018-05-04T21:19:26.586Z,18.60
2018-05-04T21:21:58.111Z,18.60
2018-05-04T21:24:30.273Z,18.50
2018-05-04T21:27:02.482Z,18.50
2018-05-04T21:29:33.813Z,18.40
2018-05-04T21:32:06.065Z,18.40
2018-05-04T21:34:37.661Z,18.30
2018-05-04T21:37:09.075Z,18.30
2018-05-04T21:39:40.419Z,18.30
2018-05-04T21:42:11.894Z,18.30
2018-05-04T21:44:44.053Z,18.20
2018-05-04T21:47:15.722Z,18.20
2018-05-04T21:49:47.090Z,18.20
2018-05-04T21:52:18.303Z,18.10
2018-05-04T21:54:50.509Z,18.10
2018-05-04T21:57:22.695Z,18.10
2018-05-04T21:59:54.055Z,18.00
2018-05-04T22:02:25.447Z,18.00
2018-05-04T22:04:56.800Z,18.00
2018-05-04T22:07:28.169Z,17.90
2018-05-04T22:09:59.510Z,17.90
2018-05-04T22:12:30.878Z,17.90
2018-05-04T22:15:02.028Z,17.80
2018-05-04T22:17:33.232Z,17.80
2018-05-04T22:20:04.570Z,17.80
2018-05-04T22:22:35.967Z,17.80
2018-05-04T22:25:07.351Z,17.70
2018-05-04T22:27:39.030Z,17.70
2018-05-04T22:30:11.142Z,17.60
2018-05-04T22:32:42.479Z,17.60
2018-05-04T22:35:13.978Z,17.60
2018-05-04T22:37:45.472Z,17.50
2018-05-04T22:40:16.854Z,17.50
2018-05-04T22:42:47.985Z,17.50
2018-05-04T22:45:19.134Z,17.50
2018-05-04T22:47:50.537Z,17.40
2018-05-04T22:50:21.660Z,17.40
2018-05-04T22:52:53.935Z,17.30
2018-05-04T22:55:26.022Z,17.30
2018-05-04T22:57:57.499Z,17.20
2018-05-04T23:00:29.134Z,17.30
2018-05-04T23:03:00.480Z,17.20
2018-05-04T23:05:31.884Z,17.20
2018-05-04T23:08:03.437Z,17.10
2018-05-04T23:10:34.576Z,17.10
2018-05-04T23:13:05.928Z,17.10
2018-05-04T23:15:37.295Z,16.50
2018-05-04T23:18:08.819Z,17.00
2018-05-04T23:20:40.166Z,17.00
2018-05-04T23:23:11.528Z,16.90
2018-05-04T23:25:43.035Z,16.90
2018-05-04T23:28:14.358Z,16.90
2018-05-04T23:30:45.733Z,16.80
2018-05-04T23:33:17.127Z,16.80
2018-05-04T23:35:48.457Z,16.80
2018-05-04T23:38:19.821Z,16.70
2018-05-04T23:40:51.231Z,16.70
2018-05-04T23:43:22.574Z,16.60
2018-05-04T23:45:53.910Z,16.60
2018-05-04T23:48:25.557Z,16.60
2018-05-04T23:50:56.890Z,16.60
2018-05-04T23:53:28.497Z,16.50
2018-05-04T23:56:00.949Z,16.40
2018-05-04T23:58:32.095Z,16.40
